SAM042 KADW-KAUS
Flight info
| Callsign | SAM042 |
|---|---|
| Flight time | N/A |
| Altitude | 34000 |
| Route | JEFSN2 MAULS Q34 TXK WINDU SEWZY6 |
| Aircraft | B737/M-SDE2E3FGHIRWXY/LB1 |
Departure
| Time | 2026-05-04 19:09 |
|---|---|
| Airport | Joint Base Andrews (KADW) |
Arrival
| Time | N/A |
|---|---|
| Airport | Austin Bergstrom International Airport (KAUS) |
| Time | Latitude | Longitude | Altitude | Speed | Heading |
|---|---|---|---|---|---|
| 2026-05-04 18:48 | 38.80432 | -76.88436 | 276 ft | 0 kts | 270° |
| 2026-05-04 19:02 | 38.80432 | -76.88439 | 267 ft | 4 kts | 270° |
| 2026-05-04 19:02 | 38.80403 | -76.88481 | 266 ft | 7 kts | 200° |
| 2026-05-04 19:02 | 38.80323 | -76.88477 | 266 ft | 15 kts | 173° |
| 2026-05-04 19:02 | 38.80294 | -76.88397 | 266 ft | 12 kts | 88° |
| 2026-05-04 19:03 | 38.80292 | -76.88221 | 266 ft | 22 kts | 95° |
| 2026-05-04 19:03 | 38.80289 | -76.88028 | 266 ft | 21 kts | 90° |
| 2026-05-04 19:03 | 38.80290 | -76.87839 | 266 ft | 21 kts | 90° |
| 2026-05-04 19:03 | 38.80290 | -76.87655 | 266 ft | 20 kts | 90° |
| 2026-05-04 19:04 | 38.80290 | -76.87504 | 266 ft | 12 kts | 89° |
| 2026-05-04 19:04 | 38.80342 | -76.87446 | 270 ft | 13 kts | 1° |
| 2026-05-04 19:04 | 38.80484 | -76.87445 | 274 ft | 21 kts | 0° |
| 2026-05-04 19:04 | 38.80631 | -76.87446 | 274 ft | 21 kts | 0° |
| 2026-05-04 19:05 | 38.80774 | -76.87447 | 274 ft | 20 kts | 359° |
| 2026-05-04 19:05 | 38.80912 | -76.87447 | 274 ft | 20 kts | 1° |
| 2026-05-04 19:05 | 38.81092 | -76.87446 | 274 ft | 31 kts | 359° |
| 2026-05-04 19:05 | 38.81305 | -76.87449 | 274 ft | 30 kts | 359° |
| 2026-05-04 19:06 | 38.81507 | -76.87452 | 274 ft | 28 kts | 359° |
| 2026-05-04 19:06 | 38.81696 | -76.87455 | 274 ft | 26 kts | 2° |
| 2026-05-04 19:06 | 38.81871 | -76.87449 | 274 ft | 24 kts | 0° |
| 2026-05-04 19:06 | 38.82034 | -76.87450 | 274 ft | 23 kts | 360° |
| 2026-05-04 19:07 | 38.82190 | -76.87450 | 274 ft | 17 kts | 359° |
| 2026-05-04 19:07 | 38.82262 | -76.87452 | 274 ft | 9 kts | 359° |
| 2026-05-04 19:07 | 38.82298 | -76.87410 | 274 ft | 0 kts | 68° |
| 2026-05-04 19:07 | 38.82304 | -76.87392 | 277 ft | 4 kts | 69° |
| 2026-05-04 19:08 | 38.82310 | -76.87330 | 274 ft | 13 kts | 89° |
| 2026-05-04 19:08 | 38.82310 | -76.87206 | 274 ft | 14 kts | 90° |
| 2026-05-04 19:08 | 38.82299 | -76.87092 | 279 ft | 13 kts | 130° |
| 2026-05-04 19:08 | 38.82213 | -76.87068 | 275 ft | 13 kts | 180° |
| 2026-05-04 19:09 | 38.82070 | -76.87068 | 276 ft | 42 kts | 180° |
| 2026-05-04 19:09 | 38.81480 | -76.87065 | 271 ft | 125 kts | 180° |
| 2026-05-04 19:09 | 38.80398 | -76.87053 | 486 ft | 175 kts | 183° |
| 2026-05-04 19:09 | 38.79150 | -76.87055 | 1472 ft | 184 kts | 184° |
| 2026-05-04 19:10 | 38.77852 | -76.87090 | 2556 ft | 188 kts | 185° |
| 2026-05-04 19:10 | 38.76549 | -76.87134 | 3563 ft | 193 kts | 185° |
| 2026-05-04 19:10 | 38.75101 | -76.87189 | 3970 ft | 223 kts | 185° |
| 2026-05-04 19:10 | 38.73488 | -76.87251 | 4565 ft | 245 kts | 184° |
| 2026-05-04 19:11 | 38.71708 | -76.87317 | 5330 ft | 260 kts | 185° |
| 2026-05-04 19:11 | 38.69910 | -76.87382 | 6424 ft | 263 kts | 185° |
| 2026-05-04 19:11 | 38.68062 | -76.87451 | 7422 ft | 269 kts | 186° |
| 2026-05-04 19:11 | 38.66170 | -76.87524 | 8403 ft | 276 kts | 185° |
| 2026-05-04 19:12 | 38.64227 | -76.87600 | 9376 ft | 282 kts | 185° |
| 2026-05-04 19:12 | 38.60828 | -76.89621 | 11191 ft | 276 kts | 234° |
| 2026-05-04 19:12 | 38.59790 | -76.91647 | 12233 ft | 272 kts | 247° |
| 2026-05-04 19:13 | 38.59224 | -76.93943 | 13185 ft | 273 kts | 262° |
| 2026-05-04 19:13 | 38.58980 | -76.96370 | 14125 ft | 277 kts | 265° |
| 2026-05-04 19:13 | 38.58786 | -76.98837 | 14998 ft | 282 kts | 265° |
| 2026-05-04 19:13 | 38.58592 | -77.01352 | 15879 ft | 287 kts | 265° |
| 2026-05-04 19:14 | 38.58389 | -77.03884 | 16772 ft | 292 kts | 265° |
| 2026-05-04 19:14 | 38.58172 | -77.06501 | 17633 ft | 298 kts | 265° |
| 2026-05-04 19:14 | 38.57945 | -77.09162 | 18494 ft | 303 kts | 265° |
| 2026-05-04 19:14 | 38.57711 | -77.11860 | 19324 ft | 307 kts | 265° |
| 2026-05-04 19:15 | 38.57477 | -77.14583 | 20191 ft | 309 kts | 267° |
| 2026-05-04 19:15 | 38.57530 | -77.17328 | 21051 ft | 310 kts | 278° |
| 2026-05-04 19:15 | 38.57829 | -77.20061 | 21912 ft | 312 kts | 280° |
| 2026-05-04 19:15 | 38.58158 | -77.22820 | 22784 ft | 315 kts | 280° |
| 2026-05-04 19:16 | 38.58484 | -77.25601 | 23586 ft | 320 kts | 279° |
| 2026-05-04 19:16 | 38.58803 | -77.28436 | 24265 ft | 323 kts | 279° |
| 2026-05-04 19:16 | 38.59111 | -77.31260 | 24994 ft | 325 kts | 279° |
| 2026-05-04 19:16 | 38.59419 | -77.34138 | 25725 ft | 327 kts | 279° |
| 2026-05-04 19:17 | 38.59724 | -77.37036 | 26444 ft | 330 kts | 279° |
| 2026-05-04 19:17 | 38.60030 | -77.39959 | 27129 ft | 333 kts | 279° |
| 2026-05-04 19:17 | 38.60257 | -77.42921 | 27803 ft | 338 kts | 270° |
| 2026-05-04 19:17 | 38.59889 | -77.45929 | 28199 ft | 354 kts | 255° |
| 2026-05-04 19:18 | 38.58963 | -77.48943 | 28325 ft | 373 kts | 251° |
| 2026-05-04 19:18 | 38.57906 | -77.52040 | 28454 ft | 388 kts | 250° |
| 2026-05-04 19:18 | 38.56788 | -77.55250 | 28581 ft | 401 kts | 250° |
| 2026-05-04 19:18 | 38.55641 | -77.58558 | 28695 ft | 414 kts | 250° |
| 2026-05-04 19:19 | 38.54866 | -77.60808 | 28799 ft | 420 kts | 250° |
| 2026-05-04 19:19 | 38.53303 | -77.65385 | 29263 ft | 426 kts | 250° |
| 2026-05-04 19:19 | 38.52118 | -77.68876 | 29689 ft | 428 kts | 250° |
| 2026-05-04 19:19 | 38.50938 | -77.72359 | 30236 ft | 426 kts | 251° |
| 2026-05-04 19:20 | 38.50143 | -77.74707 | 30617 ft | 424 kts | 251° |
| 2026-05-04 19:20 | 38.48975 | -77.78154 | 31129 ft | 422 kts | 251° |
| 2026-05-04 19:20 | 38.47811 | -77.81593 | 31542 ft | 422 kts | 251° |
| 2026-05-04 19:20 | 38.46660 | -77.84987 | 32028 ft | 420 kts | 251° |
| 2026-05-04 19:21 | 38.45498 | -77.88405 | 32482 ft | 419 kts | 251° |
| 2026-05-04 19:21 | 38.44237 | -77.91762 | 32858 ft | 424 kts | 244° |